createdAt,value
2022-09-28T00:03:14.850Z,21.60
2022-09-28T00:13:21.012Z,26.30
2022-09-28T00:23:27.109Z,25.70
2022-09-28T00:33:33.209Z,25.00
2022-09-28T00:43:39.459Z,23.20
2022-09-28T00:53:45.571Z,21.00
2022-09-28T01:03:52.356Z,17.30
2022-09-28T01:13:59.065Z,22.30
2022-09-28T01:24:25.558Z,23.50
2022-09-28T01:34:35.709Z,22.80
2022-09-28T01:44:44.507Z,18.80
2022-09-28T01:54:54.744Z,23.20
2022-09-28T02:05:07.569Z,17.50
2022-09-28T02:15:18.003Z,17.80
2022-09-28T02:25:30.256Z,16.90
2022-09-28T02:35:36.611Z,14.50
2022-09-28T02:45:48.662Z,16.80
2022-09-28T02:55:57.753Z,12.80
2022-09-28T03:06:26.917Z,14.60
2022-09-28T03:16:33.543Z,20.90
2022-09-28T03:26:39.959Z,22.20
2022-09-28T03:36:45.997Z,22.90
2022-09-28T03:46:52.050Z,22.00
2022-09-28T03:56:58.185Z,18.00
2022-09-28T04:07:04.262Z,17.20
2022-09-28T04:17:10.345Z,14.60
2022-09-28T04:27:35.139Z,17.70
2022-09-28T04:37:41.497Z,17.70
2022-09-28T04:47:47.559Z,17.60
2022-09-28T04:57:53.625Z,18.60
2022-09-28T05:08:00.414Z,18.00
2022-09-28T05:18:06.799Z,17.10
2022-09-28T05:28:12.931Z,19.80
2022-09-28T05:38:19.399Z,24.20
2022-09-28T05:48:25.436Z,20.00
2022-09-28T05:58:31.477Z,18.00
2022-09-28T06:08:37.596Z,18.50
2022-09-28T06:18:43.724Z,14.10
2022-09-28T06:28:49.799Z,12.80
2022-09-28T06:38:55.844Z,13.60
2022-09-28T06:49:01.873Z,12.30
2022-09-28T06:59:07.963Z,8.70
2022-09-28T07:09:30.320Z,9.00
2022-09-28T07:19:38.633Z,10.60
2022-09-28T07:29:44.721Z,9.80
2022-09-28T07:40:09.576Z,6.80
2022-09-28T07:50:16.464Z,9.30
2022-09-28T08:00:22.672Z,6.40
2022-09-28T08:10:28.932Z,9.90
2022-09-28T08:20:53.703Z,6.70
2022-09-28T08:31:00.695Z,5.50
2022-09-28T08:41:22.155Z,6.30
2022-09-28T08:51:34.636Z,6.50
2022-09-28T09:01:43.499Z,4.80
2022-09-28T09:11:58.537Z,4.30
2022-09-28T09:22:18.199Z,8.60
2022-09-28T09:32:32.828Z,4.40
2022-09-28T09:42:57.421Z,4.00
2022-09-28T09:53:15.511Z,4.50
2022-09-28T10:03:26.448Z,5.30
2022-09-28T10:13:33.315Z,3.70
2022-09-28T10:23:40.494Z,4.80
2022-09-28T10:33:46.732Z,4.20
2022-09-28T10:44:10.152Z,5.40
2022-09-28T10:54:18.388Z,7.40
2022-09-28T11:04:27.396Z,4.10
2022-09-28T11:14:42.177Z,3.40
2022-09-28T11:24:51.508Z,4.70
2022-09-28T11:34:59.989Z,5.70
2022-09-28T11:45:06.800Z,2.80
2022-09-28T11:55:13.188Z,5.30
2022-09-28T12:05:22.385Z,6.20
2022-09-28T12:16:13.302Z,4.10
2022-09-28T12:26:35.920Z,7.00
2022-09-28T12:36:51.872Z,4.70
2022-09-28T12:46:57.987Z,5.40
2022-09-28T12:57:19.760Z,4.10
2022-09-28T13:07:28.961Z,6.40
2022-09-28T13:17:40.164Z,5.60
2022-09-28T13:27:49.168Z,6.40
2022-09-28T13:38:24.584Z,5.80
2022-09-28T13:48:56.630Z,11.00
2022-09-28T13:59:25.694Z,6.70
2022-09-28T14:09:45.911Z,6.90
2022-09-28T14:19:56.831Z,10.70
2022-09-28T14:30:15.099Z,7.10
2022-09-28T14:40:49.626Z,7.90
2022-09-28T14:50:58.406Z,7.40
2022-09-28T15:01:06.659Z,5.30
2022-09-28T15:11:24.749Z,4.80
2022-09-28T15:21:41.414Z,5.90
2022-09-28T15:31:52.226Z,5.80
2022-09-28T15:42:01.428Z,8.20
2022-09-28T15:52:06.594Z,13.90
2022-09-28T16:02:13.612Z,18.30
2022-09-28T16:12:21.192Z,32.30
2022-09-28T16:22:28.893Z,25.50
2022-09-28T16:32:42.703Z,23.90
2022-09-28T16:42:49.449Z,20.20
2022-09-28T16:53:22.508Z,18.90
2022-09-28T17:03:29.304Z,22.40
2022-09-28T17:13:36.089Z,21.50
2022-09-28T17:23:42.629Z,23.70
2022-09-28T17:33:48.745Z,23.90
2022-09-28T17:43:54.837Z,26.40
2022-09-28T17:54:02.240Z,24.70
2022-09-28T18:04:13.162Z,28.30
2022-09-28T18:14:25.400Z,29.80
2022-09-28T18:24:33.598Z,29.00
2022-09-28T18:34:40.046Z,30.50
2022-09-28T18:44:46.274Z,32.70
2022-09-28T18:54:52.518Z,36.00
2022-09-28T19:04:58.578Z,36.90
2022-09-28T19:15:04.804Z,31.60
2022-09-28T19:25:11.070Z,34.40
2022-09-28T19:35:17.513Z,36.40
2022-09-28T19:45:24.864Z,34.30
2022-09-28T19:55:33.007Z,33.10
2022-09-28T20:05:42.109Z,27.30
2022-09-28T20:15:48.517Z,27.10
2022-09-28T20:25:54.631Z,23.80
2022-09-28T20:36:07.957Z,27.80
2022-09-28T20:46:14.774Z,29.40
2022-09-28T20:56:22.412Z,25.90
2022-09-28T21:06:32.788Z,24.50
2022-09-28T21:16:39.273Z,26.20
2022-09-28T21:26:45.356Z,23.10
2022-09-28T21:36:55.757Z,22.20
2022-09-28T21:47:01.829Z,22.20
2022-09-28T21:57:08.066Z,21.60
2022-09-28T22:07:14.131Z,22.00
2022-09-28T22:17:20.265Z,23.80
2022-09-28T22:27:26.361Z,19.60
2022-09-28T22:37:34.033Z,18.30
2022-09-28T22:47:40.383Z,15.70
2022-09-28T22:57:46.714Z,13.60
2022-09-28T23:07:52.708Z,9.80
2022-09-28T23:17:58.899Z,13.00
